sensor_id;sensor_type;location;lat;lon;timestamp;temperature;humidity
41457;DHT22;27197;51.752;5.220;2023-04-19T13:27:00;20.50;61.90
41457;DHT22;27197;51.752;5.220;2023-04-19T13:29:37;20.40;65.00
41457;DHT22;27197;51.752;5.220;2023-04-19T13:32:10;20.40;70.00
41457;DHT22;27197;51.752;5.220;2023-04-19T13:34:40;20.80;71.60
41457;DHT22;27197;51.752;5.220;2023-04-19T13:37:14;20.60;65.00
41457;DHT22;27197;51.752;5.220;2023-04-19T13:39:43;20.60;65.40
41457;DHT22;27197;51.752;5.220;2023-04-19T13:42:20;20.70;65.80
41457;DHT22;27197;51.752;5.220;2023-04-19T13:44:50;20.60;66.30
41457;DHT22;27197;51.752;5.220;2023-04-19T13:47:26;20.70;67.40
41457;DHT22;27197;51.752;5.220;2023-04-19T13:49:55;20.60;62.10
41457;DHT22;27197;51.752;5.220;2023-04-19T13:52:25;20.60;62.60
41457;DHT22;27197;51.752;5.220;2023-04-19T13:54:56;20.70;65.20
41457;DHT22;27197;51.752;5.220;2023-04-19T13:57:28;20.70;67.60
41457;DHT22;27197;51.752;5.220;2023-04-19T14:00:00;20.70;70.20
41457;DHT22;27197;51.752;5.220;2023-04-19T14:02:32;20.70;67.80
41457;DHT22;27197;51.752;5.220;2023-04-19T14:05:05;20.60;68.30
41457;DHT22;27197;51.752;5.220;2023-04-19T14:07:36;20.60;65.60
41457;DHT22;27197;51.752;5.220;2023-04-19T14:10:08;20.60;65.20
41457;DHT22;27197;51.752;5.220;2023-04-19T14:12:37;20.70;63.30
41457;DHT22;27197;51.752;5.220;2023-04-19T14:15:07;20.60;62.90
41457;DHT22;27197;51.752;5.220;2023-04-19T14:17:37;20.60;68.50
41457;DHT22;27197;51.752;5.220;2023-04-19T14:20:09;20.60;69.30
41457;DHT22;27197;51.752;5.220;2023-04-19T14:22:39;20.70;77.60
41457;DHT22;27197;51.752;5.220;2023-04-19T14:25:10;20.60;61.40
41457;DHT22;27197;51.752;5.220;2023-04-19T14:27:42;20.60;66.40
41457;DHT22;27197;51.752;5.220;2023-04-19T14:30:15;20.70;64.80
41457;DHT22;27197;51.752;5.220;2023-04-19T14:32:47;21.00;67.80
41457;DHT22;27197;51.752;5.220;2023-04-19T14:35:17;21.00;64.80
41457;DHT22;27197;51.752;5.220;2023-04-19T14:37:49;20.90;64.50
41457;DHT22;27197;51.752;5.220;2023-04-19T14:40:22;20.90;61.30
41457;DHT22;27197;51.752;5.220;2023-04-19T14:42:55;20.80;63.40
41457;DHT22;27197;51.752;5.220;2023-04-19T14:45:24;20.70;62.60
41457;DHT22;27197;51.752;5.220;2023-04-19T14:47:56;20.70;60.80
41457;DHT22;27197;51.752;5.220;2023-04-19T14:50:29;20.70;61.10
41457;DHT22;27197;51.752;5.220;2023-04-19T14:53:01;21.00;74.30
41457;DHT22;27197;51.752;5.220;2023-04-19T14:55:38;21.00;60.70
41457;DHT22;27197;51.752;5.220;2023-04-19T14:58:08;20.80;69.50
41457;DHT22;27197;51.752;5.220;2023-04-19T15:00:38;20.80;62.80
41457;DHT22;27197;51.752;5.220;2023-04-19T15:03:09;20.70;70.00
41457;DHT22;27197;51.752;5.220;2023-04-19T15:05:40;20.70;64.20
41457;DHT22;27197;51.752;5.220;2023-04-19T15:08:14;20.90;74.00
41457;DHT22;27197;51.752;5.220;2023-04-19T15:10:43;20.90;61.90
41457;DHT22;27197;51.752;5.220;2023-04-19T15:13:13;20.70;62.20
41457;DHT22;27197;51.752;5.220;2023-04-19T15:15:47;20.70;62.90
41457;DHT22;27197;51.752;5.220;2023-04-19T15:18:16;20.80;64.20
41457;DHT22;27197;51.752;5.220;2023-04-19T15:20:46;20.60;69.30
41457;DHT22;27197;51.752;5.220;2023-04-19T15:23:21;20.80;71.50
41457;DHT22;27197;51.752;5.220;2023-04-19T15:25:49;20.80;60.20
41457;DHT22;27197;51.752;5.220;2023-04-19T15:28:24;20.90;70.00
41457;DHT22;27197;51.752;5.220;2023-04-19T15:31:01;20.90;72.50
41457;DHT22;27197;51.752;5.220;2023-04-19T15:33:29;20.70;68.30
41457;DHT22;27197;51.752;5.220;2023-04-19T15:36:03;20.70;61.90
41457;DHT22;27197;51.752;5.220;2023-04-19T15:38:32;20.70;62.50
41457;DHT22;27197;51.752;5.220;2023-04-19T15:41:08;20.70;60.90
41457;DHT22;27197;51.752;5.220;2023-04-19T15:43:39;20.50;61.70
41457;DHT22;27197;51.752;5.220;2023-04-19T15:46:11;20.50;62.70
41457;DHT22;27197;51.752;5.220;2023-04-19T15:48:41;20.50;65.10
41457;DHT22;27197;51.752;5.220;2023-04-19T15:51:17;20.60;70.40
41457;DHT22;27197;51.752;5.220;2023-04-19T15:53:46;20.70;64.10
41457;DHT22;27197;51.752;5.220;2023-04-19T15:56:14;20.70;63.40
41457;DHT22;27197;51.752;5.220;2023-04-19T15:58:44;20.70;71.70
41457;DHT22;27197;51.752;5.220;2023-04-19T16:01:18;20.80;68.30
41457;DHT22;27197;51.752;5.220;2023-04-19T16:03:48;20.80;64.60
41457;DHT22;27197;51.752;5.220;2023-04-19T16:06:20;20.70;65.70
41457;DHT22;27197;51.752;5.220;2023-04-19T16:08:52;20.90;71.50
41457;DHT22;27197;51.752;5.220;2023-04-19T16:11:25;21.00;69.80
41457;DHT22;27197;51.752;5.220;2023-04-19T16:13:55;20.90;64.70
41457;DHT22;27197;51.752;5.220;2023-04-19T16:16:28;20.70;67.50
41457;DHT22;27197;51.752;5.220;2023-04-19T16:19:01;20.70;65.20
41457;DHT22;27197;51.752;5.220;2023-04-19T16:21:30;20.60;65.10
41457;DHT22;27197;51.752;5.220;2023-04-19T16:24:02;20.60;66.30
41457;DHT22;27197;51.752;5.220;2023-04-19T16:29:04;20.50;65.60
41457;DHT22;27197;51.752;5.220;2023-04-19T16:31:33;20.50;63.80
41457;DHT22;27197;51.752;5.220;2023-04-19T16:34:04;20.50;65.50
41457;DHT22;27197;51.752;5.220;2023-04-19T16:36:36;20.50;63.50
41457;DHT22;27197;51.752;5.220;2023-04-19T16:39:07;20.50;63.60
41457;DHT22;27197;51.752;5.220;2023-04-19T16:41:40;20.50;64.70
41457;DHT22;27197;51.752;5.220;2023-04-19T16:44:11;20.40;63.00
41457;DHT22;27197;51.752;5.220;2023-04-19T16:46:47;20.50;63.50
41457;DHT22;27197;51.752;5.220;2023-04-19T22:13:36;20.20;60.30
41457;DHT22;27197;51.752;5.220;2023-04-19T22:16:08;20.20;60.40
41457;DHT22;27197;51.752;5.220;2023-04-19T22:18:39;20.20;59.70
41457;DHT22;27197;51.752;5.220;2023-04-19T22:21:14;20.20;60.50
41457;DHT22;27197;51.752;5.220;2023-04-19T22:23:44;20.20;60.20
41457;DHT22;27197;51.752;5.220;2023-04-19T22:26:14;20.20;60.40
41457;DHT22;27197;51.752;5.220;2023-04-19T22:28:48;20.20;60.30
41457;DHT22;27197;51.752;5.220;2023-04-19T22:31:17;20.20;60.40
41457;DHT22;27197;51.752;5.220;2023-04-19T22:33:47;20.20;60.20
41457;DHT22;27197;51.752;5.220;2023-04-19T22:36:18;20.20;60.40
41457;DHT22;27197;51.752;5.220;2023-04-19T22:38:48;20.10;60.00
41457;DHT22;27197;51.752;5.220;2023-04-19T22:41:22;20.10;59.90
41457;DHT22;27197;51.752;5.220;2023-04-19T22:43:52;20.10;59.40
41457;DHT22;27197;51.752;5.220;2023-04-19T22:46:22;20.10;60.10
41457;DHT22;27197;51.752;5.220;2023-04-19T22:48:54;20.10;59.40
41457;DHT22;27197;51.752;5.220;2023-04-19T22:51:26;20.10;60.10
41457;DHT22;27197;51.752;5.220;2023-04-19T22:53:56;20.10;60.20
41457;DHT22;27197;51.752;5.220;2023-04-19T22:56:27;20.10;60.00
41457;DHT22;27197;51.752;5.220;2023-04-19T22:58:57;20.10;59.80
41457;DHT22;27197;51.752;5.220;2023-04-19T23:01:27;20.10;59.90
41457;DHT22;27197;51.752;5.220;2023-04-19T23:03:57;20.10;60.00
41457;DHT22;27197;51.752;5.220;2023-04-19T23:06:27;20.10;60.00
41457;DHT22;27197;51.752;5.220;2023-04-19T23:08:57;20.10;60.00
41457;DHT22;27197;51.752;5.220;2023-04-19T23:11:29;20.10;60.00
41457;DHT22;27197;51.752;5.220;2023-04-19T23:14:00;20.10;60.10
41457;DHT22;27197;51.752;5.220;2023-04-19T23:16:32;20.10;59.70
41457;DHT22;27197;51.752;5.220;2023-04-19T23:19:02;20.00;59.60
41457;DHT22;27197;51.752;5.220;2023-04-19T23:21:31;20.00;59.70
41457;DHT22;27197;51.752;5.220;2023-04-19T23:24:02;20.00;59.80
41457;DHT22;27197;51.752;5.220;2023-04-19T23:26:35;20.00;59.60
41457;DHT22;27197;51.752;5.220;2023-04-19T23:29:06;20.00;59.80
41457;DHT22;27197;51.752;5.220;2023-04-19T23:31:38;20.00;59.80
41457;DHT22;27197;51.752;5.220;2023-04-19T23:34:09;20.00;59.70
41457;DHT22;27197;51.752;5.220;2023-04-19T23:36:39;20.00;59.70
41457;DHT22;27197;51.752;5.220;2023-04-19T23:39:10;20.00;59.60
41457;DHT22;27197;51.752;5.220;2023-04-19T23:41:40;20.00;59.60
41457;DHT22;27197;51.752;5.220;2023-04-19T23:44:09;20.00;59.50
41457;DHT22;27197;51.752;5.220;2023-04-19T23:46:39;20.00;59.50
41457;DHT22;27197;51.752;5.220;2023-04-19T23:49:12;20.00;59.50
41457;DHT22;27197;51.752;5.220;2023-04-19T23:51:40;20.00;59.50
41457;DHT22;27197;51.752;5.220;2023-04-19T23:54:10;20.00;59.40
41457;DHT22;27197;51.752;5.220;2023-04-19T23:56:40;20.00;59.40
41457;DHT22;27197;51.752;5.220;2023-04-19T23:59:12;20.00;59.40
